Gaschem Phoenix — ELUO6 — position and weather

sailwx.info

Track history (hours):
 
Tides and Currents Weather Stations Pressure Air Temp Water Temp Dewpoint Dewpoint Depression Visibility Wind Speed Wind Dir Waves Ship Positions

Gaschem Phoenix

Last reported at 2015-Jan-31 22:17 UTC. Time now 2015-Feb-01 13:18 UTC.
Position N 34°01' E 130°51'.

Length 100 m; draft 6 m.

Type: Ship. MMSI: 636090235.

Date/timePositionNaut miles runAvg speedWind from/ knotsBaromVisibWave heightAir tempDewpointWater temp
2015-Jan-31 22:17N 34°01' E 130°51'195 9.8
2015-Jan-31 02:20N 34°33' E 134°44'911.4
2015-Jan-31 01:33N 34°36' E 134°54'1110.5
2015-Jan-31 00:33N 34°35' E 135°07'1111.2
2015-Jan-30 23:33N 34°33' E 135°21'4 3.6
2015-Jan-30 22:25N 34°33' E 135°25'0 0.0
2015-Jan-29 23:13N 34°33' E 135°25'3 4.2
2015-Jan-29 22:33N 34°34' E 135°22'0 0.1
2015-Jan-29 21:33N 34°34' E 135°22'0 0.0
2015-Jan-29 20:33N 34°34' E 135°22'0 0.0
2015-Jan-29 19:33N 34°34' E 135°22'0 0.0
2015-Jan-29 18:33N 34°34' E 135°22'0 0.0
2015-Jan-29 17:33N 34°34' E 135°22'0 0.0
2015-Jan-29 16:33N 34°34' E 135°22'0 0.0
2015-Jan-29 15:33N 34°34' E 135°22'0 0.0
2015-Jan-29 14:33N 34°34' E 135°22'0 0.0
2015-Jan-29 13:33N 34°34' E 135°22'0 0.0
2015-Jan-29 12:33N 34°34' E 135°22'0 0.0
2015-Jan-29 11:33N 34°34' E 135°22'0 0.0
2015-Jan-29 10:33N 34°34' E 135°22'0 0.0
2015-Jan-29 09:33N 34°34' E 135°22'0 0.0
2015-Jan-29 08:33N 34°34' E 135°22'0 0.0
2015-Jan-29 07:33N 34°34' E 135°22'0 0.0
2015-Jan-29 06:33N 34°34' E 135°22'0 0.0
2015-Jan-29 05:33N 34°34' E 135°22'0 0.1
2015-Jan-29 04:32N 34°34' E 135°22'0 0.1
2015-Jan-29 03:33N 34°34' E 135°22'0 0.0
2015-Jan-29 02:33N 34°34' E 135°22'0 0.0
2015-Jan-29 01:33N 34°34' E 135°22'1 0.8
2015-Jan-29 00:33N 34°34' E 135°21'1211.7
2015-Jan-28 23:33N 34°34' E 135°07'1211.5
2015-Jan-28 22:31N 34°35' E 134°53'  
2015-Jan-25 04:16N 34°02' E 130°49'  
Track history (hours):
 
Tides and Currents Weather Stations Pressure Air Temp Water Temp Dewpoint Dewpoint Depression Visibility Wind Speed Wind Dir Waves Ship Positions

Gaschem Phoenix

Last reported at 2015-Jan-31 22:17 UTC. Time now 2015-Feb-01 13:18 UTC.
Position N 34°01' E 130°51'.

Length 100 m; draft 6 m.

Type: Ship. MMSI: 636090235.

Date/timePositionNaut miles runAvg speedWind from/ knotsBaromVisibWave heightAir tempDewpointWater temp
2015-Jan-31 22:17N 34°01' E 130°51'195 9.8
2015-Jan-31 02:20N 34°33' E 134°44'911.4
2015-Jan-31 01:33N 34°36' E 134°54'1110.5
2015-Jan-31 00:33N 34°35' E 135°07'1111.2
2015-Jan-30 23:33N 34°33' E 135°21'4 3.6
2015-Jan-30 22:25N 34°33' E 135°25'0 0.0
2015-Jan-29 23:13N 34°33' E 135°25'3 4.2
2015-Jan-29 22:33N 34°34' E 135°22'0 0.1
2015-Jan-29 21:33N 34°34' E 135°22'0 0.0
2015-Jan-29 20:33N 34°34' E 135°22'0 0.0
2015-Jan-29 19:33N 34°34' E 135°22'0 0.0
2015-Jan-29 18:33N 34°34' E 135°22'0 0.0
2015-Jan-29 17:33N 34°34' E 135°22'0 0.0
2015-Jan-29 16:33N 34°34' E 135°22'0 0.0
2015-Jan-29 15:33N 34°34' E 135°22'0 0.0
2015-Jan-29 14:33N 34°34' E 135°22'0 0.0
2015-Jan-29 13:33N 34°34' E 135°22'0 0.0
2015-Jan-29 12:33N 34°34' E 135°22'0 0.0
2015-Jan-29 11:33N 34°34' E 135°22'0 0.0
2015-Jan-29 10:33N 34°34' E 135°22'0 0.0
2015-Jan-29 09:33N 34°34' E 135°22'0 0.0
2015-Jan-29 08:33N 34°34' E 135°22'0 0.0
2015-Jan-29 07:33N 34°34' E 135°22'0 0.0
2015-Jan-29 06:33N 34°34' E 135°22'0 0.0
2015-Jan-29 05:33N 34°34' E 135°22'0 0.1
2015-Jan-29 04:32N 34°34' E 135°22'0 0.1
2015-Jan-29 03:33N 34°34' E 135°22'0 0.0
2015-Jan-29 02:33N 34°34' E 135°22'0 0.0
2015-Jan-29 01:33N 34°34' E 135°22'1 0.8
2015-Jan-29 00:33N 34°34' E 135°21'1211.7
2015-Jan-28 23:33N 34°34' E 135°07'1211.5
2015-Jan-28 22:31N 34°35' E 134°53'  
2015-Jan-25 04:16N 34°02' E 130°49'  

Dump ship's entire track history